createdAt,value
2018-12-29T00:01:52.005Z,29.67
2018-12-29T00:04:23.018Z,24.57
2018-12-29T00:06:54.163Z,22.63
2018-12-29T00:09:26.243Z,26.13
2018-12-29T00:11:57.466Z,24.93
2018-12-29T00:14:28.512Z,30.07
2018-12-29T00:16:59.733Z,32.00
2018-12-29T00:19:30.810Z,30.47
2018-12-29T00:22:01.896Z,29.87
2018-12-29T00:24:32.902Z,25.90
2018-12-29T00:27:04.090Z,31.40
2018-12-29T00:29:35.174Z,26.20
2018-12-29T00:32:07.288Z,29.43
2018-12-29T00:34:38.284Z,23.27
2018-12-29T00:37:09.391Z,26.10
2018-12-29T00:39:40.466Z,27.63
2018-12-29T00:42:11.572Z,27.03
2018-12-29T00:44:42.546Z,25.53
2018-12-29T00:47:13.534Z,23.40
2018-12-29T00:49:44.526Z,25.20
2018-12-29T00:52:15.418Z,26.97
2018-12-29T00:54:46.407Z,27.53
2018-12-29T00:57:17.471Z,24.20
2018-12-29T00:59:48.478Z,25.70
2018-12-29T01:02:19.842Z,22.57
2018-12-29T01:04:50.866Z,26.50
2018-12-29T01:07:21.942Z,23.47
2018-12-29T01:09:53.062Z,25.27
2018-12-29T01:12:24.306Z,25.20
2018-12-29T01:14:55.237Z,26.47
2018-12-29T01:17:26.129Z,23.13
2018-12-29T01:19:57.221Z,22.73
2018-12-29T01:22:28.486Z,26.73
2018-12-29T01:24:59.543Z,28.60
2018-12-29T01:27:30.597Z,24.70
2018-12-29T01:30:01.597Z,28.97
2018-12-29T01:32:33.910Z,24.27
2018-12-29T01:35:05.213Z,30.37
2018-12-29T01:37:36.358Z,25.83
2018-12-29T01:40:07.490Z,24.57
2018-12-29T01:42:38.597Z,24.10
2018-12-29T01:45:09.577Z,27.07
2018-12-29T01:47:40.570Z,28.20
2018-12-29T01:50:11.662Z,22.90
2018-12-29T01:52:43.002Z,24.17
2018-12-29T01:55:13.957Z,28.07
2018-12-29T01:57:44.938Z,25.77
2018-12-29T02:00:16.037Z,29.57
2018-12-29T02:02:48.028Z,26.83
2018-12-29T02:05:20.162Z,26.90
2018-12-29T02:07:51.213Z,24.40
2018-12-29T02:10:22.245Z,33.27
2018-12-29T02:12:53.232Z,21.67
2018-12-29T02:15:24.879Z,21.73
2018-12-29T02:17:55.931Z,26.80
2018-12-29T02:20:27.765Z,22.57
2018-12-29T02:22:58.822Z,23.47
2018-12-29T02:25:29.818Z,24.37
2018-12-29T02:28:00.777Z,23.83
2018-12-29T02:30:31.906Z,20.97
2018-12-29T02:33:03.174Z,28.40
2018-12-29T02:35:34.279Z,25.03
2018-12-29T02:38:05.386Z,27.83
2018-12-29T02:40:36.479Z,19.30
2018-12-29T02:43:07.746Z,23.03
2018-12-29T02:45:38.770Z,27.67
2018-12-29T02:48:09.750Z,25.07
2018-12-29T02:50:40.856Z,28.30
2018-12-29T02:53:11.951Z,25.03
2018-12-29T02:55:42.934Z,24.43
2018-12-29T02:58:14.034Z,23.83
2018-12-29T03:00:45.109Z,23.30
2018-12-29T03:03:16.221Z,22.57
2018-12-29T03:05:47.190Z,23.20
2018-12-29T03:08:18.434Z,21.23
2018-12-29T03:10:49.484Z,24.67
2018-12-29T03:13:20.669Z,26.40
2018-12-29T03:15:51.680Z,31.27
2018-12-29T03:18:22.665Z,26.13
2018-12-29T03:20:53.559Z,25.40
2018-12-29T03:23:25.666Z,22.90
2018-12-29T03:25:56.641Z,27.10
2018-12-29T03:28:27.758Z,22.37
2018-12-29T03:30:59.755Z,24.33
2018-12-29T03:33:31.009Z,24.53
2018-12-29T03:36:02.050Z,27.03
2018-12-29T03:38:33.038Z,20.10
2018-12-29T03:41:04.017Z,25.47
2018-12-29T03:43:35.210Z,23.73
2018-12-29T03:46:06.325Z,29.70
2018-12-29T03:48:37.380Z,25.30
2018-12-29T03:51:08.609Z,27.20
2018-12-29T03:53:39.686Z,26.07
2018-12-29T03:56:10.874Z,25.80
2018-12-29T03:58:41.980Z,24.40
2018-12-29T04:01:12.999Z,22.90
2018-12-29T04:03:44.046Z,21.97
2018-12-29T04:06:15.149Z,33.10
2018-12-29T04:09:23.063Z,24.77
2018-12-29T04:11:54.098Z,26.57
2018-12-29T04:14:25.338Z,32.20
2018-12-29T04:16:56.290Z,27.63
2018-12-29T04:19:27.462Z,26.40
2018-12-29T04:21:58.465Z,25.20
2018-12-29T04:24:29.508Z,29.73
2018-12-29T04:27:00.553Z,23.03
2018-12-29T04:29:31.638Z,33.47
2018-12-29T04:32:02.633Z,23.80
2018-12-29T04:34:33.621Z,26.67
2018-12-29T04:37:04.710Z,27.03
2018-12-29T04:39:35.718Z,27.27
2018-12-29T04:42:06.794Z,30.43
2018-12-29T04:44:37.865Z,25.87
2018-12-29T04:47:08.981Z,23.80
2018-12-29T04:49:40.114Z,22.53
2018-12-29T04:52:11.061Z,19.60
2018-12-29T04:54:42.182Z,24.57
2018-12-29T04:57:13.277Z,24.27
2018-12-29T04:59:44.338Z,22.20
2018-12-29T05:02:15.353Z,23.87
2018-12-29T05:04:46.665Z,28.37
2018-12-29T05:07:17.714Z,24.83
2018-12-29T05:09:48.822Z,28.30
2018-12-29T05:12:19.794Z,25.23
2018-12-29T05:14:50.894Z,18.00
2018-12-29T05:17:21.882Z,30.57
2018-12-29T05:19:52.974Z,22.23
2018-12-29T05:22:23.861Z,24.43
2018-12-29T05:24:54.750Z,20.23
2018-12-29T05:27:25.786Z,19.97
2018-12-29T05:29:57.177Z,22.67
2018-12-29T05:32:28.232Z,19.30
2018-12-29T05:34:59.113Z,22.47
2018-12-29T05:37:30.209Z,27.30
2018-12-29T05:40:01.386Z,22.67
2018-12-29T05:42:32.394Z,24.00
2018-12-29T05:45:03.780Z,25.60
2018-12-29T05:47:34.786Z,22.50
2018-12-29T05:50:06.802Z,23.60
2018-12-29T05:52:37.894Z,23.67
2018-12-29T05:55:08.781Z,23.67
2018-12-29T05:57:39.839Z,25.00
2018-12-29T06:00:10.966Z,24.70
2018-12-29T06:02:42.061Z,26.23
2018-12-29T06:05:14.181Z,21.23
2018-12-29T06:07:45.150Z,24.77
2018-12-29T06:10:16.145Z,21.00
2018-12-29T06:12:47.242Z,22.33
2018-12-29T06:15:18.538Z,22.80
2018-12-29T06:17:49.426Z,23.60
2018-12-29T06:20:20.315Z,23.73
2018-12-29T06:22:51.401Z,17.23
2018-12-29T06:25:22.390Z,18.40
2018-12-29T06:27:53.678Z,20.20
2018-12-29T06:30:24.821Z,22.60
2018-12-29T06:32:55.879Z,25.33
2018-12-29T06:35:27.106Z,21.03
2018-12-29T06:37:58.062Z,24.87
2018-12-29T06:40:29.048Z,21.77
2018-12-29T06:43:00.149Z,20.07
2018-12-29T06:45:31.230Z,23.47
2018-12-29T06:48:02.218Z,19.63
2018-12-29T06:50:33.289Z,18.13
2018-12-29T06:53:04.309Z,19.77
2018-12-29T06:55:35.474Z,23.83
2018-12-29T06:58:06.494Z,18.00
2018-12-29T07:00:37.489Z,21.20
2018-12-29T07:03:08.577Z,22.23
2018-12-29T07:05:39.762Z,18.27
2018-12-29T07:08:10.766Z,22.57
2018-12-29T07:10:41.845Z,22.63
2018-12-29T07:13:12.638Z,17.77
2018-12-29T07:15:43.721Z,22.80
2018-12-29T07:18:14.718Z,23.10
2018-12-29T07:20:45.710Z,22.07
2018-12-29T07:23:16.802Z,16.53
2018-12-29T07:25:47.942Z,23.03
2018-12-29T07:28:18.886Z,19.60
2018-12-29T07:30:50.980Z,18.67
2018-12-29T07:33:21.998Z,22.77
2018-12-29T07:35:53.902Z,20.50
2018-12-29T07:38:24.883Z,18.47
2018-12-29T07:40:55.882Z,26.47
2018-12-29T07:43:26.973Z,20.90
2018-12-29T07:45:58.050Z,18.43
2018-12-29T07:48:29.046Z,27.50
2018-12-29T07:51:00.026Z,23.57
2018-12-29T07:53:31.142Z,18.30
2018-12-29T07:56:02.227Z,21.30
2018-12-29T07:58:33.215Z,20.90
2018-12-29T08:01:04.202Z,19.30
2018-12-29T08:03:35.305Z,20.67
2018-12-29T08:06:07.107Z,20.70
2018-12-29T08:08:38.198Z,20.60
2018-12-29T08:11:09.286Z,21.97
2018-12-29T08:13:40.278Z,18.27
2018-12-29T08:16:11.444Z,20.67
2018-12-29T08:18:42.470Z,21.37
2018-12-29T08:21:13.455Z,17.83
2018-12-29T08:23:44.346Z,21.63
2018-12-29T08:26:15.414Z,17.90
2018-12-29T08:28:46.529Z,22.17
2018-12-29T08:31:17.651Z,22.50
2018-12-29T08:33:48.772Z,21.20
2018-12-29T08:36:20.626Z,18.30
2018-12-29T08:38:51.618Z,20.47
2018-12-29T08:41:22.842Z,25.13
2018-12-29T08:43:53.801Z,21.50
2018-12-29T08:46:24.922Z,23.30
2018-12-29T08:48:55.781Z,21.20
2018-12-29T08:51:26.671Z,18.90
2018-12-29T08:53:57.658Z,18.00
2018-12-29T08:56:28.649Z,20.03
2018-12-29T08:58:59.746Z,19.80
2018-12-29T09:01:32.743Z,18.93
2018-12-29T09:04:03.884Z,18.23
2018-12-29T09:06:34.967Z,20.10
2018-12-29T09:09:08.206Z,20.63
2018-12-29T09:11:39.303Z,20.27
2018-12-29T09:14:10.285Z,16.07
2018-12-29T09:16:41.494Z,12.30
2018-12-29T09:19:12.070Z,13.40
2018-12-29T09:21:43.150Z,16.23
2018-12-29T09:24:14.249Z,17.47
2018-12-29T09:26:45.590Z,15.17
2018-12-29T09:29:16.527Z,15.37
2018-12-29T09:31:47.874Z,15.57
2018-12-29T09:34:22.456Z,13.97
2018-12-29T09:36:52.898Z,13.47
2018-12-29T09:39:24.019Z,14.83
2018-12-29T09:41:55.170Z,17.30
2018-12-29T09:44:26.263Z,16.40
2018-12-29T09:46:57.371Z,14.80
2018-12-29T09:49:28.662Z,17.10
2018-12-29T09:51:59.734Z,14.97
2018-12-29T09:54:30.634Z,13.90
2018-12-29T09:57:02.890Z,16.33
2018-12-29T09:59:33.836Z,16.93
2018-12-29T10:02:04.930Z,21.57
2018-12-29T10:04:36.024Z,16.70
2018-12-29T10:07:07.122Z,18.03
2018-12-29T10:09:38.209Z,17.43
2018-12-29T10:12:09.597Z,19.50
2018-12-29T10:14:40.498Z,14.23
2018-12-29T10:17:11.490Z,16.60
2018-12-29T10:19:42.582Z,17.07
2018-12-29T10:22:13.666Z,22.03
2018-12-29T10:24:45.594Z,16.27
2018-12-29T10:27:16.673Z,18.30
2018-12-29T10:29:47.810Z,21.83
2018-12-29T10:32:18.945Z,19.93
2018-12-29T10:34:50.050Z,17.83
2018-12-29T10:37:20.946Z,11.60
2018-12-29T10:39:51.826Z,16.17
2018-12-29T10:42:22.706Z,17.57
2018-12-29T10:44:54.746Z,15.90
2018-12-29T10:47:25.718Z,12.60
2018-12-29T10:49:56.710Z,17.40
2018-12-29T10:52:27.818Z,17.50
2018-12-29T10:54:58.993Z,23.17
2018-12-29T10:57:29.778Z,17.63
2018-12-29T11:00:00.774Z,19.30
2018-12-29T11:02:31.938Z,14.80
2018-12-29T11:05:03.061Z,19.07
2018-12-29T11:07:34.069Z,19.90
2018-12-29T11:10:05.346Z,19.50
2018-12-29T11:12:37.085Z,15.93
2018-12-29T11:15:08.037Z,17.70
2018-12-29T11:17:42.458Z,21.70
2018-12-29T11:20:11.666Z,19.60
2018-12-29T11:22:42.750Z,19.73
2018-12-29T11:25:13.645Z,18.23
2018-12-29T11:27:45.758Z,20.50
2018-12-29T11:30:16.745Z,16.57
2018-12-29T11:32:48.675Z,19.47
2018-12-29T11:35:19.662Z,22.00
2018-12-29T11:37:51.006Z,21.00
2018-12-29T11:40:21.935Z,19.33
2018-12-29T11:42:52.818Z,20.50
2018-12-29T11:45:23.714Z,21.23
2018-12-29T11:47:55.272Z,20.37
2018-12-29T11:50:26.313Z,23.37
2018-12-29T11:52:57.393Z,19.73
2018-12-29T11:55:29.402Z,22.17
2018-12-29T11:58:00.788Z,18.80
2018-12-29T12:00:31.945Z,24.50
2018-12-29T12:03:04.204Z,18.50
2018-12-29T12:05:35.214Z,22.63
2018-12-29T12:08:08.669Z,21.57
2018-12-29T12:10:39.649Z,25.00
2018-12-29T12:13:10.658Z,26.50
2018-12-29T12:15:41.645Z,20.70
2018-12-29T12:18:12.623Z,22.13
2018-12-29T12:20:43.618Z,15.07
2018-12-29T12:23:14.703Z,27.50
2018-12-29T12:25:45.585Z,25.67
2018-12-29T12:28:16.476Z,21.20
2018-12-29T12:30:47.939Z,17.03
2018-12-29T12:33:19.367Z,20.93
2018-12-29T12:35:50.362Z,21.20
2018-12-29T12:38:22.158Z,24.10
2018-12-29T12:40:53.270Z,23.73
2018-12-29T12:43:24.683Z,19.40
2018-12-29T12:45:55.854Z,23.63
2018-12-29T12:48:27.085Z,22.83
2018-12-29T12:50:58.152Z,18.07
2018-12-29T12:53:29.130Z,18.90
2018-12-29T12:56:00.021Z,21.57
2018-12-29T12:58:31.427Z,22.00
2018-12-29T13:01:02.821Z,18.67
2018-12-29T13:03:34.335Z,18.00
2018-12-29T13:06:05.422Z,18.70
2018-12-29T13:08:36.301Z,18.60
2018-12-29T13:11:07.401Z,20.43
2018-12-29T13:13:38.858Z,18.67
2018-12-29T13:16:09.794Z,17.50
2018-12-29T13:18:40.829Z,19.63
2018-12-29T13:21:11.769Z,21.70
2018-12-29T13:23:42.865Z,24.17
2018-12-29T13:26:13.533Z,26.33
2018-12-29T13:28:44.738Z,23.70
2018-12-29T13:31:15.722Z,24.47
2018-12-29T13:33:46.706Z,26.30
2018-12-29T13:36:18.015Z,19.63
2018-12-29T13:38:49.191Z,17.90
2018-12-29T13:41:20.193Z,23.00
2018-12-29T13:43:53.282Z,30.17
2018-12-29T13:46:24.325Z,24.53
2018-12-29T13:48:55.206Z,17.40
2018-12-29T13:51:26.205Z,18.30
2018-12-29T13:53:57.310Z,20.17
2018-12-29T13:56:30.027Z,27.23
2018-12-29T13:59:01.102Z,20.83
2018-12-29T14:01:32.115Z,26.60
2018-12-29T14:04:03.204Z,19.67
2018-12-29T14:06:34.390Z,24.20
2018-12-29T14:09:06.846Z,19.23
2018-12-29T14:11:37.817Z,21.10
2018-12-29T14:14:09.081Z,23.10
2018-12-29T14:16:40.404Z,19.73
2018-12-29T14:19:11.482Z,23.93
2018-12-29T14:21:42.598Z,24.90
2018-12-29T14:24:13.670Z,23.27
2018-12-29T14:26:44.677Z,18.70
2018-12-29T14:29:15.858Z,26.20
2018-12-29T14:31:46.956Z,25.43
2018-12-29T14:34:17.839Z,26.17
2018-12-29T14:36:48.840Z,24.10
2018-12-29T14:39:20.034Z,25.27
2018-12-29T14:41:51.122Z,22.57
2018-12-29T14:44:22.214Z,23.87
2018-12-29T14:46:55.459Z,21.63
2018-12-29T14:49:26.529Z,21.80
2018-12-29T14:51:57.439Z,24.10
2018-12-29T14:54:28.661Z,23.13
2018-12-29T14:56:59.630Z,23.70
2018-12-29T14:59:30.705Z,24.10
2018-12-29T15:02:01.698Z,23.17
2018-12-29T15:04:32.855Z,24.60
2018-12-29T15:07:03.894Z,20.70
2018-12-29T15:09:35.174Z,28.27
2018-12-29T15:12:06.178Z,20.63
2018-12-29T15:14:37.457Z,25.23
2018-12-29T15:17:08.478Z,24.00
2018-12-29T15:19:39.442Z,23.97
2018-12-29T15:22:10.434Z,22.30
2018-12-29T15:24:41.741Z,23.50
2018-12-29T15:27:13.755Z,31.10
2018-12-29T15:29:44.846Z,25.63
2018-12-29T15:32:16.145Z,28.37
2018-12-29T15:34:47.321Z,19.83
2018-12-29T15:37:18.219Z,23.27
2018-12-29T15:39:49.210Z,27.37
2018-12-29T15:42:20.510Z,28.97
2018-12-29T15:44:51.597Z,23.23
2018-12-29T15:47:22.594Z,25.93
2018-12-29T15:49:53.685Z,24.37
2018-12-29T15:52:24.574Z,26.37
2018-12-29T15:54:55.644Z,29.53
2018-12-29T15:57:26.757Z,21.47
2018-12-29T15:59:58.610Z,25.63
2018-12-29T16:02:29.664Z,29.57
2018-12-29T16:05:01.203Z,25.27
2018-12-29T16:07:32.157Z,24.40
2018-12-29T16:10:03.218Z,29.17
2018-12-29T16:12:34.338Z,31.73
2018-12-29T16:15:05.677Z,149.93
2018-12-29T16:17:36.517Z,98.53
2018-12-29T16:20:08.529Z,53.13
2018-12-29T16:22:39.554Z,34.53
2018-12-29T16:25:10.878Z,26.00
2018-12-29T16:27:41.706Z,27.40
2018-12-29T16:30:12.890Z,33.13
2018-12-29T16:32:43.894Z,25.97
2018-12-29T16:35:15.054Z,27.90
2018-12-29T16:37:46.069Z,29.27
2018-12-29T16:40:17.341Z,34.63
2018-12-29T16:42:48.467Z,29.63
2018-12-29T16:45:19.753Z,25.17
2018-12-29T16:47:50.745Z,28.20
2018-12-29T16:50:21.843Z,28.53
2018-12-29T16:52:53.046Z,33.83
2018-12-29T16:55:24.020Z,28.10
2018-12-29T16:57:55.022Z,35.23
2018-12-29T17:00:26.349Z,35.60
2018-12-29T17:02:57.418Z,30.50
2018-12-29T17:05:28.617Z,27.50
2018-12-29T17:07:59.830Z,28.50
2018-12-29T17:10:31.066Z,40.17
2018-12-29T17:13:02.174Z,40.57
2018-12-29T17:15:33.523Z,34.57
2018-12-29T17:18:04.881Z,29.57
2018-12-29T17:20:35.662Z,36.17
2018-12-29T17:23:06.566Z,30.27
2018-12-29T17:25:37.855Z,26.30
2018-12-29T17:28:08.839Z,31.33
2018-12-29T17:30:39.826Z,25.30
2018-12-29T17:33:10.861Z,25.73
2018-12-29T17:35:42.014Z,28.63
2018-12-29T17:38:13.326Z,25.93
2018-12-29T17:40:44.382Z,31.03
2018-12-29T17:43:19.078Z,27.00
2018-12-29T17:45:49.977Z,27.80
2018-12-29T17:48:21.066Z,32.60
2018-12-29T17:50:52.025Z,33.33
2018-12-29T17:53:24.277Z,28.80
2018-12-29T17:55:55.450Z,30.03
2018-12-29T17:58:26.461Z,33.93
2018-12-29T18:00:57.438Z,35.13
2018-12-29T18:03:28.685Z,37.50
2018-12-29T18:05:59.934Z,35.53
2018-12-29T18:08:30.925Z,34.80
2018-12-29T18:11:01.909Z,32.07
2018-12-29T18:13:33.014Z,25.40
2018-12-29T18:16:04.085Z,42.67
2018-12-29T18:18:35.098Z,148.93
2018-12-29T18:21:06.425Z,63.90
2018-12-29T18:23:37.623Z,41.13
2018-12-29T18:26:08.657Z,31.27
2018-12-29T18:28:39.662Z,32.53
2018-12-29T18:31:11.618Z,39.63
2018-12-29T18:33:42.565Z,38.93
2018-12-29T18:36:13.791Z,29.63
2018-12-29T18:38:45.154Z,32.40
2018-12-29T18:41:16.153Z,43.43
2018-12-29T18:43:47.150Z,40.70
2018-12-29T18:46:18.121Z,54.03
2018-12-29T18:48:49.125Z,39.30
2018-12-29T18:51:20.091Z,35.13
2018-12-29T18:53:51.519Z,39.13
2018-12-29T18:56:22.584Z,44.87
2018-12-29T18:58:53.591Z,69.57
2018-12-29T19:01:25.503Z,51.27
2018-12-29T19:03:56.597Z,41.30
2018-12-29T19:06:29.034Z,36.43
2018-12-29T19:09:00.115Z,51.27
2018-12-29T19:11:32.083Z,49.40
2018-12-29T19:14:03.322Z,48.87
2018-12-29T19:16:34.561Z,27.23
2018-12-29T19:19:05.389Z,35.73
2018-12-29T19:21:37.259Z,33.23
2018-12-29T19:24:08.510Z,30.93
2018-12-29T19:26:39.997Z,31.50
2018-12-29T19:29:11.013Z,38.10
2018-12-29T19:31:44.585Z,33.57
2018-12-29T19:34:14.723Z,50.80
2018-12-29T19:36:45.886Z,134.03
2018-12-29T19:39:17.101Z,53.47
2018-12-29T19:41:54.937Z,79.23
2018-12-29T19:44:21.035Z,54.13
2018-12-29T19:46:52.217Z,149.03
2018-12-29T19:49:23.220Z,183.27
2018-12-29T19:51:54.382Z,136.30
2018-12-29T19:54:25.617Z,52.20
2018-12-29T19:56:57.406Z,48.70
2018-12-29T19:59:28.506Z,76.97
2018-12-29T20:01:59.549Z,47.33
2018-12-29T20:04:30.398Z,54.97
2018-12-29T20:07:02.113Z,43.63
2018-12-29T20:09:33.082Z,52.37
2018-12-29T20:12:04.251Z,87.07
2018-12-29T20:14:35.376Z,52.20
2018-12-29T20:17:06.653Z,36.33
2018-12-29T20:19:37.762Z,33.37
2018-12-29T20:22:09.146Z,38.70
2018-12-29T20:24:40.158Z,31.87
2018-12-29T20:27:11.241Z,33.03
2018-12-29T20:29:42.334Z,31.87
2018-12-29T20:32:15.750Z,29.43
2018-12-29T20:34:46.765Z,34.83
2018-12-29T20:37:17.994Z,30.27
2018-12-29T20:39:49.061Z,52.30
2018-12-29T20:42:20.231Z,49.60
2018-12-29T20:44:51.233Z,40.53
2018-12-29T20:47:22.215Z,30.27
2018-12-29T20:49:53.341Z,36.10
2018-12-29T20:52:24.410Z,37.50
2018-12-29T20:54:55.396Z,103.53
2018-12-29T20:57:26.382Z,85.90
2018-12-29T20:59:57.281Z,96.73
2018-12-29T21:02:28.475Z,75.23
2018-12-29T21:04:59.569Z,46.63
2018-12-29T21:07:30.814Z,39.60
2018-12-29T21:10:01.866Z,34.27
2018-12-29T21:12:33.055Z,36.67
2018-12-29T21:15:04.042Z,32.23
2018-12-29T21:17:35.682Z,37.50
2018-12-29T21:20:07.762Z,26.50
2018-12-29T21:22:38.743Z,26.27
2018-12-29T21:25:09.635Z,28.83
2018-12-29T21:27:40.706Z,33.03
2018-12-29T21:30:12.033Z,31.30
2018-12-29T21:32:43.118Z,26.90
2018-12-29T21:35:14.161Z,27.43
2018-12-29T21:37:45.546Z,30.53
2018-12-29T21:40:16.498Z,28.80
2018-12-29T21:42:47.482Z,27.53
2018-12-29T21:45:18.483Z,24.53
2018-12-29T21:47:49.486Z,24.60
2018-12-29T21:50:25.464Z,27.83
2018-12-29T21:52:53.067Z,28.40
2018-12-29T21:55:26.022Z,26.10
2018-12-29T21:57:57.437Z,35.40
2018-12-29T22:00:28.406Z,26.50
2018-12-29T22:02:59.498Z,28.77
2018-12-29T22:05:30.597Z,30.40
2018-12-29T22:08:01.478Z,29.07
2018-12-29T22:10:32.492Z,26.47
2018-12-29T22:13:03.810Z,27.70
2018-12-29T22:15:34.760Z,31.63
2018-12-29T22:18:05.766Z,33.73
2018-12-29T22:20:36.757Z,22.93
2018-12-29T22:23:07.885Z,30.47
2018-12-29T22:25:47.900Z,30.60
2018-12-29T22:28:12.610Z,24.83
2018-12-29T22:30:43.674Z,28.93
2018-12-29T22:33:14.729Z,29.10
2018-12-29T22:35:45.646Z,26.27
2018-12-29T22:38:16.625Z,26.90
2018-12-29T22:40:47.735Z,20.87
2018-12-29T22:43:18.813Z,23.90
2018-12-29T22:45:49.805Z,22.63
2018-12-29T22:48:20.790Z,28.13
2018-12-29T22:50:52.214Z,28.17
2018-12-29T22:53:23.293Z,28.03
2018-12-29T22:55:54.278Z,25.83
2018-12-29T22:58:25.328Z,27.40
2018-12-29T23:00:56.474Z,22.80
2018-12-29T23:03:27.825Z,26.47
2018-12-29T23:05:58.753Z,26.37
2018-12-29T23:08:29.902Z,20.70
2018-12-29T23:11:01.250Z,26.63
2018-12-29T23:13:32.225Z,27.90
2018-12-29T23:16:03.223Z,29.47
2018-12-29T23:18:34.493Z,24.33
2018-12-29T23:21:05.677Z,27.30
2018-12-29T23:23:36.830Z,24.60
2018-12-29T23:26:07.908Z,26.47
2018-12-29T23:28:38.981Z,22.10
2018-12-29T23:31:10.286Z,27.17
2018-12-29T23:33:41.358Z,28.47
2018-12-29T23:36:13.039Z,26.67
2018-12-29T23:38:44.073Z,29.20
2018-12-29T23:41:15.182Z,24.30
2018-12-29T23:43:46.253Z,22.43
2018-12-29T23:46:17.145Z,22.33
2018-12-29T23:48:48.246Z,26.13
2018-12-29T23:51:19.349Z,25.57
2018-12-29T23:53:50.462Z,26.30
2018-12-29T23:56:21.982Z,21.20
2018-12-29T23:58:53.079Z,23.57
